sensor_id;sensor_type;location;lat;lon;timestamp;P1;durP1;ratioP1;P2;durP2;ratioP2
40286;SDS011;25998;46.604;13.610;2023-06-22T00:01:04;19.30;;;15.93;;
40286;SDS011;25998;46.604;13.610;2023-06-22T00:04:14;15.10;;;13.48;;
40286;SDS011;25998;46.604;13.610;2023-06-22T00:07:26;15.77;;;12.93;;
40286;SDS011;25998;46.604;13.610;2023-06-22T00:10:36;16.50;;;12.55;;
40286;SDS011;25998;46.604;13.610;2023-06-22T00:13:47;18.50;;;13.18;;
40286;SDS011;25998;46.604;13.610;2023-06-22T00:16:59;19.10;;;14.48;;
40286;SDS011;25998;46.604;13.610;2023-06-22T00:20:10;15.48;;;11.63;;
40286;SDS011;25998;46.604;13.610;2023-06-22T00:23:21;20.42;;;14.60;;
40286;SDS011;25998;46.604;13.610;2023-06-22T00:26:33;14.55;;;12.60;;
40286;SDS011;25998;46.604;13.610;2023-06-22T00:29:44;18.27;;;14.48;;
40286;SDS011;25998;46.604;13.610;2023-06-22T00:32:55;21.10;;;13.90;;
40286;SDS011;25998;46.604;13.610;2023-06-22T00:36:06;16.17;;;12.90;;
40286;SDS011;25998;46.604;13.610;2023-06-22T00:39:18;17.90;;;13.55;;
40286;SDS011;25998;46.604;13.610;2023-06-22T00:42:28;16.45;;;12.85;;
40286;SDS011;25998;46.604;13.610;2023-06-22T00:45:39;17.30;;;13.77;;
40286;SDS011;25998;46.604;13.610;2023-06-22T00:48:50;17.02;;;14.20;;
40286;SDS011;25998;46.604;13.610;2023-06-22T00:52:02;21.20;;;14.82;;
40286;SDS011;25998;46.604;13.610;2023-06-22T00:55:13;18.48;;;13.57;;
40286;SDS011;25998;46.604;13.610;2023-06-22T00:58:28;20.70;;;13.45;;
40286;SDS011;25998;46.604;13.610;2023-06-22T01:01:39;18.83;;;13.35;;
40286;SDS011;25998;46.604;13.610;2023-06-22T01:04:51;20.58;;;13.75;;
40286;SDS011;25998;46.604;13.610;2023-06-22T01:08:14;16.80;;;13.95;;
40286;SDS011;25998;46.604;13.610;2023-06-22T01:11:36;22.10;;;13.23;;
40286;SDS011;25998;46.604;13.610;2023-06-22T01:15:01;18.58;;;13.80;;
40286;SDS011;25998;46.604;13.610;2023-06-22T01:18:20;21.50;;;14.27;;
40286;SDS011;25998;46.604;13.610;2023-06-22T01:21:37;16.95;;;12.98;;
40286;SDS011;25998;46.604;13.610;2023-06-22T01:24:51;17.33;;;13.52;;
40286;SDS011;25998;46.604;13.610;2023-06-22T01:31:29;19.10;;;13.63;;
40286;SDS011;25998;46.604;13.610;2023-06-22T01:34:44;15.85;;;13.88;;
40286;SDS011;25998;46.604;13.610;2023-06-22T01:37:57;20.38;;;14.20;;
40286;SDS011;25998;46.604;13.610;2023-06-22T01:41:09;17.48;;;13.82;;
40286;SDS011;25998;46.604;13.610;2023-06-22T01:44:20;20.73;;;14.05;;
40286;SDS011;25998;46.604;13.610;2023-06-22T01:47:33;18.52;;;13.18;;
40286;SDS011;25998;46.604;13.610;2023-06-22T01:50:44;16.45;;;13.60;;
40286;SDS011;25998;46.604;13.610;2023-06-22T01:53:55;21.30;;;13.65;;
40286;SDS011;25998;46.604;13.610;2023-06-22T01:57:06;17.33;;;13.43;;
40286;SDS011;25998;46.604;13.610;2023-06-22T02:00:20;22.15;;;14.02;;
40286;SDS011;25998;46.604;13.610;2023-06-22T02:03:34;17.00;;;13.57;;
40286;SDS011;25998;46.604;13.610;2023-06-22T02:06:50;16.30;;;12.38;;
40286;SDS011;25998;46.604;13.610;2023-06-22T02:10:04;16.27;;;12.88;;
40286;SDS011;25998;46.604;13.610;2023-06-22T02:13:17;16.08;;;12.63;;
40286;SDS011;25998;46.604;13.610;2023-06-22T02:16:31;19.25;;;12.70;;
40286;SDS011;25998;46.604;13.610;2023-06-22T02:19:42;19.95;;;14.05;;
40286;SDS011;25998;46.604;13.610;2023-06-22T02:22:56;20.13;;;12.73;;
40286;SDS011;25998;46.604;13.610;2023-06-22T02:26:06;17.20;;;13.38;;
40286;SDS011;25998;46.604;13.610;2023-06-22T02:29:17;18.33;;;13.77;;
40286;SDS011;25998;46.604;13.610;2023-06-22T02:32:28;19.52;;;13.35;;
40286;SDS011;25998;46.604;13.610;2023-06-22T02:35:39;19.50;;;13.20;;
40286;SDS011;25998;46.604;13.610;2023-06-22T02:38:55;16.13;;;14.00;;
40286;SDS011;25998;46.604;13.610;2023-06-22T02:42:11;20.08;;;13.80;;
40286;SDS011;25998;46.604;13.610;2023-06-22T02:45:22;17.40;;;13.02;;
40286;SDS011;25998;46.604;13.610;2023-06-22T02:48:32;20.23;;;12.07;;
40286;SDS011;25998;46.604;13.610;2023-06-22T02:51:47;16.05;;;12.38;;
40286;SDS011;25998;46.604;13.610;2023-06-22T02:54:58;19.08;;;12.77;;
40286;SDS011;25998;46.604;13.610;2023-06-22T02:58:09;18.15;;;12.38;;
40286;SDS011;25998;46.604;13.610;2023-06-22T03:01:20;17.05;;;12.55;;
40286;SDS011;25998;46.604;13.610;2023-06-22T03:04:34;14.88;;;12.23;;
40286;SDS011;25998;46.604;13.610;2023-06-22T03:07:45;18.75;;;13.00;;
40286;SDS011;25998;46.604;13.610;2023-06-22T03:10:56;17.65;;;11.90;;
40286;SDS011;25998;46.604;13.610;2023-06-22T03:14:07;18.65;;;11.90;;
40286;SDS011;25998;46.604;13.610;2023-06-22T03:17:18;21.10;;;13.02;;
40286;SDS011;25998;46.604;13.610;2023-06-22T03:20:29;21.88;;;12.20;;
40286;SDS011;25998;46.604;13.610;2023-06-22T03:23:43;17.52;;;12.45;;
40286;SDS011;25998;46.604;13.610;2023-06-22T03:26:54;18.65;;;11.65;;
40286;SDS011;25998;46.604;13.610;2023-06-22T03:30:06;17.08;;;11.45;;
40286;SDS011;25998;46.604;13.610;2023-06-22T03:33:19;20.08;;;12.48;;
40286;SDS011;25998;46.604;13.610;2023-06-22T03:36:29;21.67;;;13.45;;
40286;SDS011;25998;46.604;13.610;2023-06-22T03:39:43;17.38;;;11.25;;
40286;SDS011;25998;46.604;13.610;2023-06-22T03:42:55;26.23;;;13.30;;
40286;SDS011;25998;46.604;13.610;2023-06-22T03:46:06;19.25;;;12.18;;
40286;SDS011;25998;46.604;13.610;2023-06-22T03:49:16;19.02;;;11.30;;
40286;SDS011;25998;46.604;13.610;2023-06-22T03:52:27;18.90;;;11.75;;
40286;SDS011;25998;46.604;13.610;2023-06-22T03:55:40;19.35;;;11.27;;
40286;SDS011;25998;46.604;13.610;2023-06-22T03:59:01;19.45;;;12.02;;
40286;SDS011;25998;46.604;13.610;2023-06-22T04:02:12;14.32;;;11.32;;
40286;SDS011;25998;46.604;13.610;2023-06-22T04:05:23;22.38;;;12.23;;
40286;SDS011;25998;46.604;13.610;2023-06-22T04:08:34;23.85;;;13.70;;
40286;SDS011;25998;46.604;13.610;2023-06-22T04:11:45;21.77;;;13.98;;
40286;SDS011;25998;46.604;13.610;2023-06-22T04:14:56;23.85;;;12.98;;
40286;SDS011;25998;46.604;13.610;2023-06-22T04:18:07;23.27;;;13.68;;
40286;SDS011;25998;46.604;13.610;2023-06-22T04:21:17;23.00;;;13.05;;
40286;SDS011;25998;46.604;13.610;2023-06-22T04:24:29;18.90;;;13.57;;
40286;SDS011;25998;46.604;13.610;2023-06-22T04:27:40;18.85;;;12.50;;
40286;SDS011;25998;46.604;13.610;2023-06-22T04:30:51;22.83;;;13.98;;
40286;SDS011;25998;46.604;13.610;2023-06-22T04:34:02;25.80;;;13.70;;
40286;SDS011;25998;46.604;13.610;2023-06-22T04:37:17;17.52;;;12.88;;
40286;SDS011;25998;46.604;13.610;2023-06-22T04:40:28;19.50;;;12.70;;
40286;SDS011;25998;46.604;13.610;2023-06-22T04:43:39;20.15;;;12.98;;
40286;SDS011;25998;46.604;13.610;2023-06-22T04:46:56;22.98;;;12.63;;
40286;SDS011;25998;46.604;13.610;2023-06-22T04:50:13;20.10;;;13.70;;
40286;SDS011;25998;46.604;13.610;2023-06-22T04:53:25;17.73;;;12.63;;
40286;SDS011;25998;46.604;13.610;2023-06-22T04:56:39;17.40;;;12.32;;
40286;SDS011;25998;46.604;13.610;2023-06-22T04:59:50;19.45;;;13.10;;
40286;SDS011;25998;46.604;13.610;2023-06-22T05:03:01;20.90;;;13.65;;
40286;SDS011;25998;46.604;13.610;2023-06-22T05:06:13;20.92;;;14.18;;
40286;SDS011;25998;46.604;13.610;2023-06-22T05:09:24;25.67;;;15.55;;
40286;SDS011;25998;46.604;13.610;2023-06-22T05:12:35;28.48;;;13.57;;
40286;SDS011;25998;46.604;13.610;2023-06-22T05:15:46;20.27;;;13.98;;
40286;SDS011;25998;46.604;13.610;2023-06-22T05:18:57;24.02;;;13.27;;
40286;SDS011;25998;46.604;13.610;2023-06-22T05:22:08;22.73;;;14.38;;
40286;SDS011;25998;46.604;13.610;2023-06-22T05:25:22;19.65;;;12.95;;
40286;SDS011;25998;46.604;13.610;2023-06-22T05:28:33;20.50;;;13.55;;
40286;SDS011;25998;46.604;13.610;2023-06-22T05:31:44;17.05;;;11.85;;
40286;SDS011;25998;46.604;13.610;2023-06-22T05:34:55;18.90;;;12.80;;
40286;SDS011;25998;46.604;13.610;2023-06-22T05:38:06;20.50;;;10.98;;
40286;SDS011;25998;46.604;13.610;2023-06-22T05:41:17;21.90;;;12.70;;
40286;SDS011;25998;46.604;13.610;2023-06-22T05:44:27;20.27;;;12.05;;
40286;SDS011;25998;46.604;13.610;2023-06-22T05:47:38;16.20;;;11.10;;
40286;SDS011;25998;46.604;13.610;2023-06-22T05:50:49;14.80;;;10.45;;
40286;SDS011;25998;46.604;13.610;2023-06-22T05:54:00;14.73;;;10.98;;
40286;SDS011;25998;46.604;13.610;2023-06-22T05:57:11;12.18;;;8.82;;
40286;SDS011;25998;46.604;13.610;2023-06-22T06:00:22;11.25;;;8.95;;
40286;SDS011;25998;46.604;13.610;2023-06-22T06:03:34;13.20;;;10.85;;
40286;SDS011;25998;46.604;13.610;2023-06-22T06:06:51;9.52;;;8.40;;
40286;SDS011;25998;46.604;13.610;2023-06-22T06:10:01;15.98;;;10.02;;
40286;SDS011;25998;46.604;13.610;2023-06-22T06:13:14;14.20;;;7.90;;
40286;SDS011;25998;46.604;13.610;2023-06-22T06:16:25;18.13;;;10.93;;
40286;SDS011;25998;46.604;13.610;2023-06-22T06:19:36;14.60;;;10.25;;
40286;SDS011;25998;46.604;13.610;2023-06-22T06:22:47;16.02;;;10.60;;
40286;SDS011;25998;46.604;13.610;2023-06-22T06:25:58;34.47;;;14.27;;
40286;SDS011;25998;46.604;13.610;2023-06-22T06:29:09;25.63;;;15.85;;
40286;SDS011;25998;46.604;13.610;2023-06-22T06:32:20;16.50;;;12.98;;
40286;SDS011;25998;46.604;13.610;2023-06-22T06:35:31;13.75;;;12.35;;
40286;SDS011;25998;46.604;13.610;2023-06-22T06:38:42;12.75;;;11.50;;
40286;SDS011;25998;46.604;13.610;2023-06-22T06:41:53;18.60;;;12.20;;
40286;SDS011;25998;46.604;13.610;2023-06-22T06:45:04;15.20;;;12.07;;
40286;SDS011;25998;46.604;13.610;2023-06-22T06:48:15;18.05;;;12.48;;
40286;SDS011;25998;46.604;13.610;2023-06-22T06:51:27;17.20;;;12.82;;
40286;SDS011;25998;46.604;13.610;2023-06-22T06:54:38;15.82;;;12.93;;
40286;SDS011;25998;46.604;13.610;2023-06-22T06:57:49;16.73;;;14.02;;
40286;SDS011;25998;46.604;13.610;2023-06-22T07:01:00;17.42;;;12.63;;
40286;SDS011;25998;46.604;13.610;2023-06-22T07:04:11;17.95;;;14.10;;
40286;SDS011;25998;46.604;13.610;2023-06-22T07:07:22;19.63;;;15.10;;
40286;SDS011;25998;46.604;13.610;2023-06-22T07:10:33;19.95;;;12.80;;
40286;SDS011;25998;46.604;13.610;2023-06-22T07:13:43;20.77;;;13.98;;
40286;SDS011;25998;46.604;13.610;2023-06-22T07:16:54;18.45;;;14.13;;
40286;SDS011;25998;46.604;13.610;2023-06-22T07:20:05;17.80;;;13.75;;
40286;SDS011;25998;46.604;13.610;2023-06-22T07:23:20;21.05;;;13.73;;
40286;SDS011;25998;46.604;13.610;2023-06-22T07:26:31;20.75;;;13.23;;
40286;SDS011;25998;46.604;13.610;2023-06-22T07:29:42;25.17;;;14.40;;
40286;SDS011;25998;46.604;13.610;2023-06-22T07:32:53;17.80;;;13.50;;
40286;SDS011;25998;46.604;13.610;2023-06-22T07:36:04;17.75;;;13.13;;
40286;SDS011;25998;46.604;13.610;2023-06-22T07:39:17;22.92;;;13.52;;
40286;SDS011;25998;46.604;13.610;2023-06-22T07:42:28;20.90;;;14.70;;
40286;SDS011;25998;46.604;13.610;2023-06-22T07:45:47;23.58;;;14.35;;
40286;SDS011;25998;46.604;13.610;2023-06-22T07:49:05;23.35;;;13.95;;
40286;SDS011;25998;46.604;13.610;2023-06-22T07:52:18;22.50;;;13.40;;
40286;SDS011;25998;46.604;13.610;2023-06-22T07:55:29;21.05;;;13.43;;
40286;SDS011;25998;46.604;13.610;2023-06-22T07:58:39;22.00;;;13.20;;
40286;SDS011;25998;46.604;13.610;2023-06-22T08:01:50;22.45;;;13.10;;
40286;SDS011;25998;46.604;13.610;2023-06-22T08:05:01;16.17;;;13.35;;
40286;SDS011;25998;46.604;13.610;2023-06-22T08:08:12;20.45;;;13.13;;
40286;SDS011;25998;46.604;13.610;2023-06-22T08:11:24;17.80;;;13.98;;
40286;SDS011;25998;46.604;13.610;2023-06-22T08:14:37;18.55;;;14.57;;
40286;SDS011;25998;46.604;13.610;2023-06-22T08:17:48;19.17;;;14.07;;
40286;SDS011;25998;46.604;13.610;2023-06-22T08:20:59;17.90;;;14.32;;
40286;SDS011;25998;46.604;13.610;2023-06-22T08:24:10;19.27;;;15.00;;
40286;SDS011;25998;46.604;13.610;2023-06-22T08:27:21;18.88;;;15.38;;
40286;SDS011;25998;46.604;13.610;2023-06-22T08:30:33;15.88;;;13.77;;
40286;SDS011;25998;46.604;13.610;2023-06-22T08:33:44;17.83;;;14.63;;
40286;SDS011;25998;46.604;13.610;2023-06-22T08:36:56;17.05;;;14.52;;
40286;SDS011;25998;46.604;13.610;2023-06-22T08:40:08;20.27;;;15.00;;
40286;SDS011;25998;46.604;13.610;2023-06-22T08:43:20;19.98;;;15.13;;
40286;SDS011;25998;46.604;13.610;2023-06-22T08:46:31;19.20;;;14.45;;
40286;SDS011;25998;46.604;13.610;2023-06-22T08:49:43;20.33;;;14.07;;
40286;SDS011;25998;46.604;13.610;2023-06-22T08:52:54;24.23;;;15.07;;
40286;SDS011;25998;46.604;13.610;2023-06-22T08:56:05;21.40;;;14.95;;
40286;SDS011;25998;46.604;13.610;2023-06-22T08:59:16;27.27;;;15.20;;
40286;SDS011;25998;46.604;13.610;2023-06-22T09:02:27;22.30;;;15.73;;
40286;SDS011;25998;46.604;13.610;2023-06-22T09:05:40;20.95;;;14.25;;
40286;SDS011;25998;46.604;13.610;2023-06-22T09:08:51;17.52;;;13.98;;
40286;SDS011;25998;46.604;13.610;2023-06-22T09:12:02;22.52;;;15.15;;
40286;SDS011;25998;46.604;13.610;2023-06-22T09:15:13;17.95;;;14.25;;
40286;SDS011;25998;46.604;13.610;2023-06-22T09:18:24;19.33;;;14.50;;
40286;SDS011;25998;46.604;13.610;2023-06-22T09:21:35;18.75;;;14.73;;
40286;SDS011;25998;46.604;13.610;2023-06-22T09:24:46;29.13;;;15.60;;
40286;SDS011;25998;46.604;13.610;2023-06-22T09:27:57;18.15;;;14.07;;
40286;SDS011;25998;46.604;13.610;2023-06-22T09:31:08;19.45;;;14.25;;
40286;SDS011;25998;46.604;13.610;2023-06-22T09:34:19;21.45;;;14.38;;
40286;SDS011;25998;46.604;13.610;2023-06-22T09:37:30;22.55;;;13.80;;
40286;SDS011;25998;46.604;13.610;2023-06-22T09:40:41;19.95;;;13.38;;
40286;SDS011;25998;46.604;13.610;2023-06-22T09:43:52;21.88;;;14.55;;
40286;SDS011;25998;46.604;13.610;2023-06-22T09:47:03;20.10;;;14.13;;
40286;SDS011;25998;46.604;13.610;2023-06-22T09:50:14;22.25;;;14.95;;
40286;SDS011;25998;46.604;13.610;2023-06-22T09:53:26;19.48;;;13.20;;
40286;SDS011;25998;46.604;13.610;2023-06-22T09:56:37;22.67;;;13.88;;
40286;SDS011;25998;46.604;13.610;2023-06-22T09:59:48;19.95;;;14.40;;
40286;SDS011;25998;46.604;13.610;2023-06-22T10:02:59;19.20;;;13.63;;
40286;SDS011;25998;46.604;13.610;2023-06-22T10:06:10;19.75;;;13.55;;
40286;SDS011;25998;46.604;13.610;2023-06-22T10:09:20;17.50;;;13.25;;
40286;SDS011;25998;46.604;13.610;2023-06-22T10:12:31;21.40;;;14.43;;
40286;SDS011;25998;46.604;13.610;2023-06-22T10:15:42;19.40;;;14.27;;
40286;SDS011;25998;46.604;13.610;2023-06-22T10:18:55;23.23;;;15.73;;
40286;SDS011;25998;46.604;13.610;2023-06-22T10:22:06;22.13;;;15.55;;
40286;SDS011;25998;46.604;13.610;2023-06-22T10:25:17;23.02;;;15.00;;
40286;SDS011;25998;46.604;13.610;2023-06-22T10:28:28;17.05;;;14.50;;
40286;SDS011;25998;46.604;13.610;2023-06-22T10:31:39;18.10;;;14.90;;
40286;SDS011;25998;46.604;13.610;2023-06-22T10:34:49;22.02;;;15.77;;
40286;SDS011;25998;46.604;13.610;2023-06-22T10:38:00;22.17;;;16.65;;
40286;SDS011;25998;46.604;13.610;2023-06-22T10:41:11;18.20;;;16.33;;
40286;SDS011;25998;46.604;13.610;2023-06-22T10:44:22;22.88;;;17.48;;
40286;SDS011;25998;46.604;13.610;2023-06-22T10:47:33;23.42;;;17.35;;
40286;SDS011;25998;46.604;13.610;2023-06-22T10:50:44;22.05;;;17.08;;
40286;SDS011;25998;46.604;13.610;2023-06-22T10:53:55;21.33;;;16.73;;
40286;SDS011;25998;46.604;13.610;2023-06-22T10:57:06;21.23;;;16.55;;
40286;SDS011;25998;46.604;13.610;2023-06-22T11:00:17;21.63;;;16.38;;
40286;SDS011;25998;46.604;13.610;2023-06-22T11:03:31;20.95;;;17.13;;
40286;SDS011;25998;46.604;13.610;2023-06-22T11:06:42;23.00;;;16.42;;
40286;SDS011;25998;46.604;13.610;2023-06-22T11:09:53;26.08;;;17.30;;
40286;SDS011;25998;46.604;13.610;2023-06-22T11:13:04;22.17;;;15.98;;
40286;SDS011;25998;46.604;13.610;2023-06-22T11:16:19;19.52;;;16.13;;
40286;SDS011;25998;46.604;13.610;2023-06-22T11:19:30;22.73;;;16.30;;
40286;SDS011;25998;46.604;13.610;2023-06-22T11:22:41;20.80;;;16.05;;
40286;SDS011;25998;46.604;13.610;2023-06-22T11:25:52;19.83;;;15.10;;
40286;SDS011;25998;46.604;13.610;2023-06-22T11:29:03;22.30;;;15.75;;
40286;SDS011;25998;46.604;13.610;2023-06-22T11:32:15;20.48;;;15.35;;
40286;SDS011;25998;46.604;13.610;2023-06-22T11:35:26;25.05;;;16.00;;
40286;SDS011;25998;46.604;13.610;2023-06-22T11:38:37;21.90;;;16.08;;
40286;SDS011;25998;46.604;13.610;2023-06-22T11:41:49;17.60;;;14.07;;
40286;SDS011;25998;46.604;13.610;2023-06-22T11:45:00;22.05;;;15.60;;
40286;SDS011;25998;46.604;13.610;2023-06-22T11:48:11;20.33;;;14.90;;
40286;SDS011;25998;46.604;13.610;2023-06-22T11:51:22;19.00;;;15.57;;
40286;SDS011;25998;46.604;13.610;2023-06-22T11:54:33;18.45;;;14.13;;
40286;SDS011;25998;46.604;13.610;2023-06-22T11:57:54;19.35;;;14.90;;
40286;SDS011;25998;46.604;13.610;2023-06-22T12:01:08;19.60;;;14.68;;
40286;SDS011;25998;46.604;13.610;2023-06-22T12:04:19;19.98;;;15.38;;
40286;SDS011;25998;46.604;13.610;2023-06-22T12:07:30;18.27;;;15.10;;
40286;SDS011;25998;46.604;13.610;2023-06-22T12:10:41;24.35;;;15.25;;
40286;SDS011;25998;46.604;13.610;2023-06-22T12:13:52;19.05;;;14.77;;
40286;SDS011;25998;46.604;13.610;2023-06-22T12:17:03;21.70;;;15.77;;
40286;SDS011;25998;46.604;13.610;2023-06-22T12:20:14;21.88;;;15.93;;
40286;SDS011;25998;46.604;13.610;2023-06-22T12:23:24;20.58;;;15.50;;
40286;SDS011;25998;46.604;13.610;2023-06-22T12:26:35;19.10;;;15.25;;
40286;SDS011;25998;46.604;13.610;2023-06-22T12:29:46;21.15;;;16.13;;
40286;SDS011;25998;46.604;13.610;2023-06-22T12:32:57;21.50;;;16.00;;
40286;SDS011;25998;46.604;13.610;2023-06-22T12:36:08;18.65;;;14.88;;
40286;SDS011;25998;46.604;13.610;2023-06-22T12:39:19;22.30;;;15.85;;
40286;SDS011;25998;46.604;13.610;2023-06-22T12:42:30;21.90;;;16.13;;
40286;SDS011;25998;46.604;13.610;2023-06-22T12:45:41;21.58;;;15.80;;
40286;SDS011;25998;46.604;13.610;2023-06-22T12:48:52;19.75;;;15.55;;
40286;SDS011;25998;46.604;13.610;2023-06-22T12:52:03;22.50;;;14.57;;
40286;SDS011;25998;46.604;13.610;2023-06-22T12:55:18;22.67;;;14.68;;
40286;SDS011;25998;46.604;13.610;2023-06-22T12:58:29;20.00;;;14.07;;
40286;SDS011;25998;46.604;13.610;2023-06-22T13:01:40;21.17;;;14.27;;
40286;SDS011;25998;46.604;13.610;2023-06-22T13:04:51;20.98;;;13.80;;
40286;SDS011;25998;46.604;13.610;2023-06-22T13:08:02;23.33;;;14.07;;
40286;SDS011;25998;46.604;13.610;2023-06-22T13:11:13;19.35;;;14.65;;
40286;SDS011;25998;46.604;13.610;2023-06-22T13:14:23;19.48;;;13.70;;
40286;SDS011;25998;46.604;13.610;2023-06-22T13:17:34;20.45;;;13.45;;
40286;SDS011;25998;46.604;13.610;2023-06-22T13:20:45;17.63;;;13.45;;
40286;SDS011;25998;46.604;13.610;2023-06-22T13:23:56;20.55;;;13.80;;
40286;SDS011;25998;46.604;13.610;2023-06-22T13:27:07;19.83;;;13.82;;
40286;SDS011;25998;46.604;13.610;2023-06-22T13:30:18;19.02;;;13.55;;
40286;SDS011;25998;46.604;13.610;2023-06-22T13:33:29;21.45;;;13.35;;
40286;SDS011;25998;46.604;13.610;2023-06-22T13:36:40;20.23;;;14.27;;
40286;SDS011;25998;46.604;13.610;2023-06-22T13:39:51;17.13;;;13.63;;
40286;SDS011;25998;46.604;13.610;2023-06-22T13:43:02;17.65;;;13.38;;
40286;SDS011;25998;46.604;13.610;2023-06-22T13:46:13;21.60;;;14.55;;
40286;SDS011;25998;46.604;13.610;2023-06-22T13:49:24;21.65;;;14.73;;
40286;SDS011;25998;46.604;13.610;2023-06-22T13:52:34;19.75;;;13.75;;
40286;SDS011;25998;46.604;13.610;2023-06-22T13:55:46;18.48;;;13.95;;
40286;SDS011;25998;46.604;13.610;2023-06-22T13:58:57;22.08;;;14.68;;
40286;SDS011;25998;46.604;13.610;2023-06-22T14:02:08;14.30;;;12.52;;
40286;SDS011;25998;46.604;13.610;2023-06-22T14:05:19;17.45;;;13.30;;
40286;SDS011;25998;46.604;13.610;2023-06-22T14:08:30;19.10;;;13.38;;
40286;SDS011;25998;46.604;13.610;2023-06-22T14:11:41;19.05;;;12.95;;
40286;SDS011;25998;46.604;13.610;2023-06-22T14:14:52;16.33;;;13.23;;
40286;SDS011;25998;46.604;13.610;2023-06-22T14:18:03;19.77;;;13.00;;
40286;SDS011;25998;46.604;13.610;2023-06-22T14:21:14;25.88;;;12.13;;
40286;SDS011;25998;46.604;13.610;2023-06-22T14:24:25;19.50;;;12.95;;
40286;SDS011;25998;46.604;13.610;2023-06-22T14:27:36;19.42;;;13.00;;
40286;SDS011;25998;46.604;13.610;2023-06-22T14:30:46;15.88;;;11.63;;
40286;SDS011;25998;46.604;13.610;2023-06-22T14:34:01;17.10;;;12.20;;
40286;SDS011;25998;46.604;13.610;2023-06-22T14:37:13;17.17;;;11.88;;
40286;SDS011;25998;46.604;13.610;2023-06-22T14:40:24;14.77;;;11.35;;
40286;SDS011;25998;46.604;13.610;2023-06-22T14:43:35;19.00;;;11.23;;
40286;SDS011;25998;46.604;13.610;2023-06-22T14:46:46;21.13;;;10.52;;
40286;SDS011;25998;46.604;13.610;2023-06-22T14:49:57;18.05;;;9.95;;
40286;SDS011;25998;46.604;13.610;2023-06-22T14:53:07;18.63;;;10.05;;
40286;SDS011;25998;46.604;13.610;2023-06-22T14:56:18;22.98;;;10.50;;
40286;SDS011;25998;46.604;13.610;2023-06-22T14:59:29;23.10;;;10.02;;
40286;SDS011;25998;46.604;13.610;2023-06-22T15:02:40;18.98;;;9.52;;
40286;SDS011;25998;46.604;13.610;2023-06-22T15:05:51;22.00;;;10.15;;
40286;SDS011;25998;46.604;13.610;2023-06-22T15:09:02;23.90;;;10.65;;
40286;SDS011;25998;46.604;13.610;2023-06-22T15:12:13;21.83;;;10.02;;
40286;SDS011;25998;46.604;13.610;2023-06-22T15:15:24;21.95;;;10.80;;
40286;SDS011;25998;46.604;13.610;2023-06-22T15:18:35;25.85;;;9.50;;
40286;SDS011;25998;46.604;13.610;2023-06-22T15:21:46;26.85;;;8.82;;
40286;SDS011;25998;46.604;13.610;2023-06-22T15:24:57;25.83;;;9.18;;
40286;SDS011;25998;46.604;13.610;2023-06-22T15:28:08;28.65;;;8.75;;
40286;SDS011;25998;46.604;13.610;2023-06-22T15:31:19;24.33;;;9.30;;
40286;SDS011;25998;46.604;13.610;2023-06-22T15:34:30;24.35;;;9.05;;
40286;SDS011;25998;46.604;13.610;2023-06-22T15:37:41;24.98;;;8.93;;
40286;SDS011;25998;46.604;13.610;2023-06-22T15:40:51;26.73;;;9.98;;
40286;SDS011;25998;46.604;13.610;2023-06-22T15:44:02;23.65;;;8.50;;
40286;SDS011;25998;46.604;13.610;2023-06-22T15:47:13;23.45;;;9.20;;
40286;SDS011;25998;46.604;13.610;2023-06-22T15:50:24;23.15;;;9.00;;
40286;SDS011;25998;46.604;13.610;2023-06-22T15:53:35;20.67;;;8.65;;
40286;SDS011;25998;46.604;13.610;2023-06-22T15:56:46;19.77;;;8.95;;
40286;SDS011;25998;46.604;13.610;2023-06-22T15:59:57;30.42;;;9.55;;
40286;SDS011;25998;46.604;13.610;2023-06-22T16:03:08;26.98;;;9.25;;
40286;SDS011;25998;46.604;13.610;2023-06-22T16:06:19;24.48;;;9.65;;
40286;SDS011;25998;46.604;13.610;2023-06-22T16:09:31;24.75;;;10.15;;
40286;SDS011;25998;46.604;13.610;2023-06-22T16:12:42;27.38;;;8.95;;
40286;SDS011;25998;46.604;13.610;2023-06-22T16:15:54;29.58;;;12.20;;
40286;SDS011;25998;46.604;13.610;2023-06-22T16:19:05;22.23;;;9.52;;
40286;SDS011;25998;46.604;13.610;2023-06-22T16:22:17;21.40;;;9.35;;
40286;SDS011;25998;46.604;13.610;2023-06-22T16:25:28;23.98;;;9.32;;
40286;SDS011;25998;46.604;13.610;2023-06-22T16:28:38;22.33;;;9.73;;
40286;SDS011;25998;46.604;13.610;2023-06-22T16:31:49;29.08;;;10.45;;
40286;SDS011;25998;46.604;13.610;2023-06-22T16:35:00;25.23;;;10.77;;
40286;SDS011;25998;46.604;13.610;2023-06-22T16:38:11;25.10;;;9.60;;
40286;SDS011;25998;46.604;13.610;2023-06-22T16:41:22;29.92;;;10.15;;
40286;SDS011;25998;46.604;13.610;2023-06-22T16:44:35;30.40;;;11.35;;
40286;SDS011;25998;46.604;13.610;2023-06-22T16:47:47;27.65;;;10.45;;
40286;SDS011;25998;46.604;13.610;2023-06-22T16:51:00;29.35;;;9.80;;
40286;SDS011;25998;46.604;13.610;2023-06-22T16:54:11;24.67;;;9.68;;
40286;SDS011;25998;46.604;13.610;2023-06-22T16:57:23;24.15;;;9.63;;
40286;SDS011;25998;46.604;13.610;2023-06-22T17:00:35;25.02;;;9.80;;
40286;SDS011;25998;46.604;13.610;2023-06-22T17:03:48;23.70;;;9.30;;
40286;SDS011;25998;46.604;13.610;2023-06-22T17:07:13;23.77;;;9.35;;
40286;SDS011;25998;46.604;13.610;2023-06-22T17:10:27;25.00;;;10.00;;
40286;SDS011;25998;46.604;13.610;2023-06-22T17:13:38;24.70;;;10.00;;
40286;SDS011;25998;46.604;13.610;2023-06-22T17:16:49;28.08;;;9.75;;
40286;SDS011;25998;46.604;13.610;2023-06-22T17:20:00;24.15;;;9.55;;
40286;SDS011;25998;46.604;13.610;2023-06-22T17:23:11;25.75;;;9.38;;
40286;SDS011;25998;46.604;13.610;2023-06-22T17:26:22;26.00;;;9.57;;
40286;SDS011;25998;46.604;13.610;2023-06-22T17:29:33;25.73;;;9.65;;
40286;SDS011;25998;46.604;13.610;2023-06-22T17:32:45;24.52;;;10.43;;
40286;SDS011;25998;46.604;13.610;2023-06-22T17:35:57;26.30;;;9.13;;
40286;SDS011;25998;46.604;13.610;2023-06-22T17:39:12;25.15;;;10.40;;
40286;SDS011;25998;46.604;13.610;2023-06-22T17:42:24;29.85;;;10.57;;
40286;SDS011;25998;46.604;13.610;2023-06-22T17:45:42;28.77;;;10.48;;
40286;SDS011;25998;46.604;13.610;2023-06-22T17:48:54;31.17;;;9.82;;
40286;SDS011;25998;46.604;13.610;2023-06-22T17:52:05;22.38;;;9.75;;
40286;SDS011;25998;46.604;13.610;2023-06-22T17:55:31;28.77;;;10.02;;
40286;SDS011;25998;46.604;13.610;2023-06-22T17:58:50;23.73;;;10.75;;
40286;SDS011;25998;46.604;13.610;2023-06-22T18:02:05;25.23;;;10.40;;
40286;SDS011;25998;46.604;13.610;2023-06-22T18:05:19;31.27;;;11.13;;
40286;SDS011;25998;46.604;13.610;2023-06-22T18:08:42;27.10;;;10.75;;
40286;SDS011;25998;46.604;13.610;2023-06-22T18:11:53;40.25;;;13.35;;
40286;SDS011;25998;46.604;13.610;2023-06-22T18:15:09;36.97;;;11.52;;
40286;SDS011;25998;46.604;13.610;2023-06-22T18:18:21;38.30;;;11.68;;
40286;SDS011;25998;46.604;13.610;2023-06-22T18:21:34;27.55;;;11.95;;
40286;SDS011;25998;46.604;13.610;2023-06-22T18:24:48;37.10;;;10.57;;
40286;SDS011;25998;46.604;13.610;2023-06-22T18:28:00;22.35;;;10.30;;
40286;SDS011;25998;46.604;13.610;2023-06-22T18:31:11;34.28;;;11.30;;